sensor_id;sensor_type;location;lat;lon;timestamp;pressure;altitude;pressure_sealevel;temperature;humidity
72636;BME280;60679;48.888;15.544;2022-10-23T00:01:23;96602.59;;;6.79;nan
72636;BME280;60679;48.888;15.544;2022-10-23T00:04:01;96604.19;;;6.73;nan
72636;BME280;60679;48.888;15.544;2022-10-23T00:06:28;96594.69;;;6.77;nan
72636;BME280;60679;48.888;15.544;2022-10-23T00:08:54;96600.91;;;6.78;nan
72636;BME280;60679;48.888;15.544;2022-10-23T00:11:22;96589.34;;;6.77;nan
72636;BME280;60679;48.888;15.544;2022-10-23T00:13:49;96597.00;;;6.80;nan
72636;BME280;60679;48.888;15.544;2022-10-23T00:16:15;96606.94;;;6.80;nan
72636;BME280;60679;48.888;15.544;2022-10-23T00:18:40;96601.28;;;6.75;nan
72636;BME280;60679;48.888;15.544;2022-10-23T00:21:08;96601.25;;;6.68;nan
72636;BME280;60679;48.888;15.544;2022-10-23T00:23:34;96601.25;;;6.68;nan
72636;BME280;60679;48.888;15.544;2022-10-23T00:25:59;96602.25;;;6.67;nan
72636;BME280;60679;48.888;15.544;2022-10-23T00:28:25;96600.88;;;6.71;nan
72636;BME280;60679;48.888;15.544;2022-10-23T00:30:51;96605.91;;;6.81;nan
72636;BME280;60679;48.888;15.544;2022-10-23T00:33:16;96612.16;;;6.88;nan
72636;BME280;60679;48.888;15.544;2022-10-23T00:35:42;96614.72;;;6.96;nan
72636;BME280;60679;48.888;15.544;2022-10-23T00:38:09;96608.66;;;6.87;nan
72636;BME280;60679;48.888;15.544;2022-10-23T00:40:36;96605.25;;;6.79;nan
72636;BME280;60679;48.888;15.544;2022-10-23T00:43:02;96608.13;;;6.77;nan
72636;BME280;60679;48.888;15.544;2022-10-23T00:45:29;96605.44;;;6.77;nan
72636;BME280;60679;48.888;15.544;2022-10-23T00:47:58;96604.88;;;6.82;nan
72636;BME280;60679;48.888;15.544;2022-10-23T00:50:27;96588.84;;;6.88;nan
72636;BME280;60679;48.888;15.544;2022-10-23T00:52:58;96594.22;;;6.88;nan
72636;BME280;60679;48.888;15.544;2022-10-23T00:55:25;96591.47;;;6.82;nan
72636;BME280;60679;48.888;15.544;2022-10-23T00:57:52;96592.16;;;6.69;nan
72636;BME280;60679;48.888;15.544;2022-10-23T01:00:29;96589.44;;;6.63;nan
72636;BME280;60679;48.888;15.544;2022-10-23T01:02:56;96597.00;;;6.59;nan
72636;BME280;60679;48.888;15.544;2022-10-23T01:05:29;96591.19;;;6.56;nan
72636;BME280;60679;48.888;15.544;2022-10-23T01:08:11;96596.22;;;6.44;nan
72636;BME280;60679;48.888;15.544;2022-10-23T01:10:53;96594.31;;;6.38;nan
72636;BME280;60679;48.888;15.544;2022-10-23T01:13:31;96584.22;;;6.40;nan
72636;BME280;60679;48.888;15.544;2022-10-23T01:18:43;96590.31;;;6.49;nan
72636;BME280;60679;48.888;15.544;2022-10-23T01:21:21;96589.59;;;6.40;nan
72636;BME280;60679;48.888;15.544;2022-10-23T01:30:06;96585.88;;;6.41;nan
72636;BME280;60679;48.888;15.544;2022-10-23T01:32:41;96588.31;;;6.36;nan
72636;BME280;60679;48.888;15.544;2022-10-23T01:35:18;96583.53;;;6.31;nan
72636;BME280;60679;48.888;15.544;2022-10-23T01:37:48;96586.56;;;6.28;nan
72636;BME280;60679;48.888;15.544;2022-10-23T01:40:27;96587.97;;;6.24;nan
72636;BME280;60679;48.888;15.544;2022-10-23T01:42:59;96583.91;;;6.28;nan
72636;BME280;60679;48.888;15.544;2022-10-23T01:45:35;96582.06;;;6.29;nan
72636;BME280;60679;48.888;15.544;2022-10-23T01:48:04;96574.75;;;6.23;nan
72636;BME280;60679;48.888;15.544;2022-10-23T01:50:32;96573.34;;;6.27;nan
72636;BME280;60679;48.888;15.544;2022-10-23T01:52:58;96577.28;;;6.46;nan
72636;BME280;60679;48.888;15.544;2022-10-23T01:55:24;96570.38;;;6.36;nan
72636;BME280;60679;48.888;15.544;2022-10-23T01:57:52;96569.03;;;6.26;nan
72636;BME280;60679;48.888;15.544;2022-10-23T02:00:18;96567.25;;;6.18;nan
72636;BME280;60679;48.888;15.544;2022-10-23T02:02:46;96568.09;;;6.19;nan
72636;BME280;60679;48.888;15.544;2022-10-23T02:05:32;96567.63;;;6.15;nan
72636;BME280;60679;48.888;15.544;2022-10-23T02:07:59;96570.06;;;6.10;nan
72636;BME280;60679;48.888;15.544;2022-10-23T02:10:40;96570.00;;;6.04;nan
72636;BME280;60679;48.888;15.544;2022-10-23T02:13:12;96568.59;;;6.08;nan
72636;BME280;60679;48.888;15.544;2022-10-23T02:15:48;96573.16;;;6.28;nan
72636;BME280;60679;48.888;15.544;2022-10-23T02:18:39;96579.75;;;6.26;nan
72636;BME280;60679;48.888;15.544;2022-10-23T02:24:16;96584.25;;;5.90;nan
72636;BME280;60679;48.888;15.544;2022-10-23T02:26:50;96598.72;;;5.80;nan
72636;BME280;60679;48.888;15.544;2022-10-23T02:29:21;96597.91;;;5.95;nan
72636;BME280;60679;48.888;15.544;2022-10-23T02:31:49;96594.50;;;6.01;nan
72636;BME280;60679;48.888;15.544;2022-10-23T02:34:15;96594.13;;;6.04;nan
72636;BME280;60679;48.888;15.544;2022-10-23T02:36:41;96588.84;;;5.96;nan
72636;BME280;60679;48.888;15.544;2022-10-23T02:39:07;96587.94;;;5.89;nan
72636;BME280;60679;48.888;15.544;2022-10-23T02:44:27;96586.44;;;5.71;nan
72636;BME280;60679;48.888;15.544;2022-10-23T02:50:13;96583.97;;;5.55;nan
72636;BME280;60679;48.888;15.544;2022-10-23T02:56:18;96586.91;;;5.46;nan
72636;BME280;60679;48.888;15.544;2022-10-23T02:58:26;96578.75;;;5.39;nan
72636;BME280;60679;48.888;15.544;2022-10-23T03:01:02;96582.84;;;5.35;nan
72636;BME280;60679;48.888;15.544;2022-10-23T03:03:32;96578.59;;;5.26;nan
72636;BME280;60679;48.888;15.544;2022-10-23T03:05:59;96588.38;;;5.19;nan
72636;BME280;60679;48.888;15.544;2022-10-23T03:08:25;96591.78;;;5.13;nan
72636;BME280;60679;48.888;15.544;2022-10-23T03:10:51;96594.16;;;5.08;nan
72636;BME280;60679;48.888;15.544;2022-10-23T03:13:16;96598.00;;;5.05;nan
72636;BME280;60679;48.888;15.544;2022-10-23T03:15:42;96596.19;;;5.06;nan
72636;BME280;60679;48.888;15.544;2022-10-23T03:18:08;96591.00;;;5.04;nan
72636;BME280;60679;48.888;15.544;2022-10-23T03:20:33;96593.06;;;5.02;nan
72636;BME280;60679;48.888;15.544;2022-10-23T03:22:59;96595.06;;;5.00;nan
72636;BME280;60679;48.888;15.544;2022-10-23T03:25:24;96601.25;;;5.01;nan
72636;BME280;60679;48.888;15.544;2022-10-23T03:27:50;96593.84;;;5.03;nan
72636;BME280;60679;48.888;15.544;2022-10-23T03:30:16;96594.22;;;5.00;nan
72636;BME280;60679;48.888;15.544;2022-10-23T03:32:41;96600.13;;;4.95;nan
72636;BME280;60679;48.888;15.544;2022-10-23T03:35:07;96600.69;;;4.91;nan
72636;BME280;60679;48.888;15.544;2022-10-23T03:37:32;96597.88;;;4.84;nan
72636;BME280;60679;48.888;15.544;2022-10-23T03:39:58;96597.25;;;4.82;nan
72636;BME280;60679;48.888;15.544;2022-10-23T03:42:23;96597.81;;;4.70;nan
72636;BME280;60679;48.888;15.544;2022-10-23T03:44:49;96593.44;;;4.54;nan
72636;BME280;60679;48.888;15.544;2022-10-23T03:47:14;96592.00;;;4.43;nan
72636;BME280;60679;48.888;15.544;2022-10-23T03:49:40;96585.34;;;4.39;nan
72636;BME280;60679;48.888;15.544;2022-10-23T03:52:06;96591.00;;;4.44;nan
72636;BME280;60679;48.888;15.544;2022-10-23T03:54:32;96592.00;;;4.43;nan
72636;BME280;60679;48.888;15.544;2022-10-23T03:56:58;96585.16;;;4.41;nan
72636;BME280;60679;48.888;15.544;2022-10-23T03:59:24;96584.53;;;4.39;nan
72636;BME280;60679;48.888;15.544;2022-10-23T04:01:50;96585.88;;;4.35;nan
72636;BME280;60679;48.888;15.544;2022-10-23T04:04:15;96581.38;;;4.35;nan
72636;BME280;60679;48.888;15.544;2022-10-23T04:06:41;96581.72;;;4.32;nan
72636;BME280;60679;48.888;15.544;2022-10-23T04:09:07;96586.59;;;4.29;nan
72636;BME280;60679;48.888;15.544;2022-10-23T04:11:32;96588.31;;;4.22;nan
72636;BME280;60679;48.888;15.544;2022-10-23T04:13:58;96584.78;;;4.21;nan
72636;BME280;60679;48.888;15.544;2022-10-23T04:16:24;96580.94;;;4.24;nan
72636;BME280;60679;48.888;15.544;2022-10-23T04:18:50;96580.59;;;4.27;nan
72636;BME280;60679;48.888;15.544;2022-10-23T04:21:15;96585.78;;;4.28;nan
72636;BME280;60679;48.888;15.544;2022-10-23T04:23:41;96583.75;;;4.30;nan
72636;BME280;60679;48.888;15.544;2022-10-23T04:26:07;96590.28;;;4.28;nan
72636;BME280;60679;48.888;15.544;2022-10-23T04:28:32;96593.94;;;4.27;nan
72636;BME280;60679;48.888;15.544;2022-10-23T04:30:58;96600.13;;;4.27;nan
72636;BME280;60679;48.888;15.544;2022-10-23T04:33:24;96596.81;;;4.25;nan
72636;BME280;60679;48.888;15.544;2022-10-23T04:35:49;96582.81;;;4.23;nan
72636;BME280;60679;48.888;15.544;2022-10-23T04:38:15;96575.13;;;4.20;nan
72636;BME280;60679;48.888;15.544;2022-10-23T04:40:40;96567.94;;;4.21;nan
72636;BME280;60679;48.888;15.544;2022-10-23T04:43:06;96568.31;;;4.18;nan
72636;BME280;60679;48.888;15.544;2022-10-23T04:45:31;96563.75;;;4.18;nan
72636;BME280;60679;48.888;15.544;2022-10-23T04:47:57;96567.53;;;4.09;nan
72636;BME280;60679;48.888;15.544;2022-10-23T04:50:22;96563.44;;;3.90;nan
72636;BME280;60679;48.888;15.544;2022-10-23T04:52:52;96562.84;;;3.80;nan
72636;BME280;60679;48.888;15.544;2022-10-23T04:55:18;96569.16;;;3.79;nan
72636;BME280;60679;48.888;15.544;2022-10-23T04:57:43;96571.50;;;3.82;nan
72636;BME280;60679;48.888;15.544;2022-10-23T05:00:11;96572.81;;;3.86;nan
72636;BME280;60679;48.888;15.544;2022-10-23T05:02:37;96581.78;;;3.93;nan
72636;BME280;60679;48.888;15.544;2022-10-23T05:05:03;96572.78;;;3.94;nan
72636;BME280;60679;48.888;15.544;2022-10-23T05:07:28;96573.13;;;3.91;nan
72636;BME280;60679;48.888;15.544;2022-10-23T05:09:54;96573.78;;;3.93;nan
72636;BME280;60679;48.888;15.544;2022-10-23T05:12:19;96579.59;;;3.97;nan
72636;BME280;60679;48.888;15.544;2022-10-23T05:14:45;96577.78;;;3.97;nan
72636;BME280;60679;48.888;15.544;2022-10-23T05:17:15;96579.94;;;3.94;nan
72636;BME280;60679;48.888;15.544;2022-10-23T05:19:46;96578.13;;;3.94;nan
72636;BME280;60679;48.888;15.544;2022-10-23T05:22:15;96580.59;;;3.96;nan
72636;BME280;60679;48.888;15.544;2022-10-23T05:24:42;96581.63;;;3.95;nan
72636;BME280;60679;48.888;15.544;2022-10-23T05:27:07;96578.94;;;3.95;nan
72636;BME280;60679;48.888;15.544;2022-10-23T05:29:33;96578.94;;;3.95;nan
72636;BME280;60679;48.888;15.544;2022-10-23T05:32:02;96570.94;;;3.95;nan
72636;BME280;60679;48.888;15.544;2022-10-23T05:34:28;96577.56;;;3.99;nan
72636;BME280;60679;48.888;15.544;2022-10-23T05:36:56;96579.38;;;4.06;nan
72636;BME280;60679;48.888;15.544;2022-10-23T05:39:22;96575.16;;;4.12;nan
72636;BME280;60679;48.888;15.544;2022-10-23T05:41:48;96576.19;;;4.11;nan
72636;BME280;60679;48.888;15.544;2022-10-23T05:44:14;96577.19;;;4.10;nan
72636;BME280;60679;48.888;15.544;2022-10-23T05:46:43;96572.88;;;4.09;nan
72636;BME280;60679;48.888;15.544;2022-10-23T05:49:21;96561.50;;;4.07;nan
72636;BME280;60679;48.888;15.544;2022-10-23T05:51:51;96572.19;;;4.07;nan
72636;BME280;60679;48.888;15.544;2022-10-23T05:54:16;96571.69;;;4.12;nan
72636;BME280;60679;48.888;15.544;2022-10-23T05:56:42;96575.94;;;4.21;nan
72636;BME280;60679;48.888;15.544;2022-10-23T05:59:08;96558.63;;;4.39;nan
72636;BME280;60679;48.888;15.544;2022-10-23T06:01:34;96568.06;;;4.50;nan
72636;BME280;60679;48.888;15.544;2022-10-23T06:04:00;96584.88;;;4.58;nan
72636;BME280;60679;48.888;15.544;2022-10-23T06:06:26;96591.63;;;4.69;nan
72636;BME280;60679;48.888;15.544;2022-10-23T06:08:52;96587.81;;;4.86;nan
72636;BME280;60679;48.888;15.544;2022-10-23T06:11:17;96582.78;;;5.06;nan
72636;BME280;60679;48.888;15.544;2022-10-23T06:13:44;96579.22;;;5.13;nan
72636;BME280;60679;48.888;15.544;2022-10-23T06:16:16;96581.47;;;5.24;nan
72636;BME280;60679;48.888;15.544;2022-10-23T06:18:43;96585.59;;;5.27;nan
72636;BME280;60679;48.888;15.544;2022-10-23T06:21:10;96580.25;;;5.27;nan
72636;BME280;60679;48.888;15.544;2022-10-23T06:23:37;96581.84;;;5.36;nan
72636;BME280;60679;48.888;15.544;2022-10-23T06:26:04;96588.22;;;5.50;nan
72636;BME280;60679;48.888;15.544;2022-10-23T06:28:30;96599.47;;;5.60;nan
72636;BME280;60679;48.888;15.544;2022-10-23T06:30:56;96595.31;;;5.72;nan
72636;BME280;60679;48.888;15.544;2022-10-23T06:33:21;96593.94;;;5.91;nan
72636;BME280;60679;48.888;15.544;2022-10-23T06:35:47;96605.28;;;6.07;nan
72636;BME280;60679;48.888;15.544;2022-10-23T06:38:12;96602.03;;;6.26;nan
72636;BME280;60679;48.888;15.544;2022-10-23T06:40:37;96606.06;;;6.37;nan
72636;BME280;60679;48.888;15.544;2022-10-23T06:43:04;96598.16;;;6.50;nan
72636;BME280;60679;48.888;15.544;2022-10-23T06:45:30;96592.53;;;6.66;nan
72636;BME280;60679;48.888;15.544;2022-10-23T06:48:00;96607.34;;;6.83;nan
72636;BME280;60679;48.888;15.544;2022-10-23T06:50:26;96594.00;;;7.11;nan
72636;BME280;60679;48.888;15.544;2022-10-23T06:52:53;96592.72;;;7.35;nan
72636;BME280;60679;48.888;15.544;2022-10-23T06:55:19;96598.28;;;7.61;nan
72636;BME280;60679;48.888;15.544;2022-10-23T06:57:44;96599.03;;;7.83;nan
72636;BME280;60679;48.888;15.544;2022-10-23T07:00:11;96605.78;;;8.06;nan
72636;BME280;60679;48.888;15.544;2022-10-23T07:02:36;96603.00;;;8.28;nan
72636;BME280;60679;48.888;15.544;2022-10-23T07:05:02;96611.53;;;8.44;nan
72636;BME280;60679;48.888;15.544;2022-10-23T07:07:30;96607.09;;;8.78;nan
72636;BME280;60679;48.888;15.544;2022-10-23T07:09:56;96606.31;;;9.36;nan
72636;BME280;60679;48.888;15.544;2022-10-23T07:12:21;96597.16;;;9.76;nan
72636;BME280;60679;48.888;15.544;2022-10-23T07:14:47;96597.50;;;10.13;nan
72636;BME280;60679;48.888;15.544;2022-10-23T07:17:12;96602.63;;;10.27;nan
72636;BME280;60679;48.888;15.544;2022-10-23T07:19:38;96602.13;;;10.50;nan
72636;BME280;60679;48.888;15.544;2022-10-23T07:22:03;96595.91;;;10.87;nan
72636;BME280;60679;48.888;15.544;2022-10-23T07:24:29;96602.00;;;11.08;nan
72636;BME280;60679;48.888;15.544;2022-10-23T07:26:55;96588.13;;;11.29;nan
72636;BME280;60679;48.888;15.544;2022-10-23T07:29:21;96598.94;;;11.53;nan
72636;BME280;60679;48.888;15.544;2022-10-23T07:31:46;96592.56;;;11.73;nan
72636;BME280;60679;48.888;15.544;2022-10-23T07:34:11;96592.59;;;12.09;nan
72636;BME280;60679;48.888;15.544;2022-10-23T07:36:37;96591.09;;;12.31;nan
72636;BME280;60679;48.888;15.544;2022-10-23T07:39:02;96597.78;;;12.77;nan
72636;BME280;60679;48.888;15.544;2022-10-23T07:41:28;96597.88;;;13.29;nan
72636;BME280;60679;48.888;15.544;2022-10-23T07:43:53;96591.34;;;13.95;nan
72636;BME280;60679;48.888;15.544;2022-10-23T07:46:18;96590.69;;;14.51;nan
72636;BME280;60679;48.888;15.544;2022-10-23T07:48:44;96595.63;;;15.22;nan
72636;BME280;60679;48.888;15.544;2022-10-23T07:51:12;96595.13;;;15.70;nan
72636;BME280;60679;48.888;15.544;2022-10-23T07:53:39;96590.94;;;15.63;nan
72636;BME280;60679;48.888;15.544;2022-10-23T07:56:23;96595.38;;;15.52;nan
72636;BME280;60679;48.888;15.544;2022-10-23T07:58:52;96589.34;;;15.83;nan
72636;BME280;60679;48.888;15.544;2022-10-23T08:01:31;96593.44;;;16.79;nan
72636;BME280;60679;48.888;15.544;2022-10-23T08:03:58;96593.09;;;17.51;nan
72636;BME280;60679;48.888;15.544;2022-10-23T08:06:24;96608.97;;;18.17;nan
72636;BME280;60679;48.888;15.544;2022-10-23T08:08:49;96597.88;;;18.86;nan
72636;BME280;60679;48.888;15.544;2022-10-23T08:11:17;96606.31;;;19.46;nan
72636;BME280;60679;48.888;15.544;2022-10-23T08:13:44;96600.03;;;20.06;nan
72636;BME280;60679;48.888;15.544;2022-10-23T08:16:10;96592.88;;;20.41;nan
72636;BME280;60679;48.888;15.544;2022-10-23T08:18:35;96589.19;;;20.81;nan
72636;BME280;60679;48.888;15.544;2022-10-23T08:21:02;96588.28;;;21.05;nan
72636;BME280;60679;48.888;15.544;2022-10-23T08:23:28;96582.41;;;21.27;nan
72636;BME280;60679;48.888;15.544;2022-10-23T08:25:58;96588.66;;;21.76;nan
72636;BME280;60679;48.888;15.544;2022-10-23T08:28:25;96591.06;;;22.22;nan
72636;BME280;60679;48.888;15.544;2022-10-23T08:30:57;96585.34;;;22.71;nan
72636;BME280;60679;48.888;15.544;2022-10-23T08:33:43;96587.41;;;23.26;nan
72636;BME280;60679;48.888;15.544;2022-10-23T08:36:26;96581.47;;;23.94;nan
72636;BME280;60679;48.888;15.544;2022-10-23T08:38:56;96587.41;;;24.52;nan
72636;BME280;60679;48.888;15.544;2022-10-23T08:46:54;96577.63;;;26.44;nan
72636;BME280;60679;48.888;15.544;2022-10-23T08:57:17;96581.25;;;28.86;nan
72636;BME280;60679;48.888;15.544;2022-10-23T08:59:56;96582.91;;;28.87;nan
72636;BME280;60679;48.888;15.544;2022-10-23T09:02:41;96576.78;;;29.40;nan
72636;BME280;60679;48.888;15.544;2022-10-23T09:05:17;96575.25;;;30.13;nan
72636;BME280;60679;48.888;15.544;2022-10-23T09:13:29;96565.22;;;32.23;nan
72636;BME280;60679;48.888;15.544;2022-10-23T09:18:24;96559.06;;;33.04;nan
72636;BME280;60679;48.888;15.544;2022-10-23T09:20:49;96557.06;;;33.51;nan
72636;BME280;60679;48.888;15.544;2022-10-23T09:23:23;96550.03;;;33.92;nan
72636;BME280;60679;48.888;15.544;2022-10-23T09:25:51;96557.94;;;34.44;nan
72636;BME280;60679;48.888;15.544;2022-10-23T09:28:27;96553.97;;;34.87;nan
72636;BME280;60679;48.888;15.544;2022-10-23T09:31:05;96551.56;;;35.31;nan
72636;BME280;60679;48.888;15.544;2022-10-23T09:33:31;96542.28;;;35.79;nan
72636;BME280;60679;48.888;15.544;2022-10-23T09:38:30;96542.75;;;36.41;nan
72636;BME280;60679;48.888;15.544;2022-10-23T09:41:03;96538.94;;;35.44;nan
72636;BME280;60679;48.888;15.544;2022-10-23T09:43:30;96531.16;;;34.08;nan
72636;BME280;60679;48.888;15.544;2022-10-23T09:46:02;96530.94;;;33.63;nan
72636;BME280;60679;48.888;15.544;2022-10-23T09:48:29;96540.34;;;34.47;nan
72636;BME280;60679;48.888;15.544;2022-10-23T09:50:59;96535.25;;;35.14;nan
72636;BME280;60679;48.888;15.544;2022-10-23T09:53:30;96531.59;;;35.62;nan
72636;BME280;60679;48.888;15.544;2022-10-23T09:56:00;96528.34;;;36.16;nan
72636;BME280;60679;48.888;15.544;2022-10-23T09:58:33;96525.63;;;36.93;nan
72636;BME280;60679;48.888;15.544;2022-10-23T10:00:59;96522.94;;;37.51;nan
72636;BME280;60679;48.888;15.544;2022-10-23T10:03:25;96522.09;;;38.09;nan
72636;BME280;60679;48.888;15.544;2022-10-23T10:06:02;96519.47;;;38.44;nan
72636;BME280;60679;48.888;15.544;2022-10-23T10:08:48;96516.69;;;38.65;nan
72636;BME280;60679;48.888;15.544;2022-10-23T10:14:21;96511.81;;;37.73;nan
72636;BME280;60679;48.888;15.544;2022-10-23T10:16:54;96508.34;;;37.93;nan
72636;BME280;60679;48.888;15.544;2022-10-23T10:19:59;96501.84;;;37.89;nan
72636;BME280;60679;48.888;15.544;2022-10-23T10:22:38;96498.84;;;37.61;nan
72636;BME280;60679;48.888;15.544;2022-10-23T10:25:20;96487.84;;;36.21;nan
72636;BME280;60679;48.888;15.544;2022-10-23T10:30:23;96491.72;;;33.82;nan
72636;BME280;60679;48.888;15.544;2022-10-23T10:33:00;96489.72;;;33.83;nan
72636;BME280;60679;48.888;15.544;2022-10-23T10:41:24;96482.88;;;39.11;nan
72636;BME280;60679;48.888;15.544;2022-10-23T10:44:08;96484.84;;;39.60;nan
72636;BME280;60679;48.888;15.544;2022-10-23T10:47:02;96486.81;;;40.02;nan
72636;BME280;60679;48.888;15.544;2022-10-23T10:57:33;96465.03;;;39.74;nan
72636;BME280;60679;48.888;15.544;2022-10-23T11:02:41;96450.16;;;38.86;nan
72636;BME280;60679;48.888;15.544;2022-10-23T11:07:41;96438.97;;;37.89;nan
72636;BME280;60679;48.888;15.544;2022-10-23T11:10:18;96443.50;;;36.11;nan
72636;BME280;60679;48.888;15.544;2022-10-23T11:12:47;96443.38;;;34.27;nan
72636;BME280;60679;48.888;15.544;2022-10-23T11:15:17;96437.84;;;34.31;nan
72636;BME280;60679;48.888;15.544;2022-10-23T11:17:51;96428.38;;;35.59;nan
72636;BME280;60679;48.888;15.544;2022-10-23T11:20:42;96429.00;;;36.89;nan
72636;BME280;60679;48.888;15.544;2022-10-23T11:26:13;96416.75;;;37.12;nan
72636;BME280;60679;48.888;15.544;2022-10-23T11:34:16;96395.59;;;36.04;nan
72636;BME280;60679;48.888;15.544;2022-10-23T11:36:58;96402.16;;;35.81;nan
72636;BME280;60679;48.888;15.544;2022-10-23T11:39:33;96397.66;;;35.47;nan
72636;BME280;60679;48.888;15.544;2022-10-23T11:42:13;96384.16;;;36.63;nan
72636;BME280;60679;48.888;15.544;2022-10-23T11:47:35;96382.88;;;36.17;nan
72636;BME280;60679;48.888;15.544;2022-10-23T11:52:39;96378.56;;;34.09;nan
72636;BME280;60679;48.888;15.544;2022-10-23T11:55:18;96372.56;;;31.07;nan
72636;BME280;60679;48.888;15.544;2022-10-23T12:00:31;96367.06;;;29.36;nan
72636;BME280;60679;48.888;15.544;2022-10-23T12:02:57;96368.63;;;29.25;nan
72636;BME280;60679;48.888;15.544;2022-10-23T12:05:29;96362.34;;;27.90;nan
72636;BME280;60679;48.888;15.544;2022-10-23T12:07:58;96353.94;;;27.52;nan
72636;BME280;60679;48.888;15.544;2022-10-23T12:10:33;96344.84;;;27.26;nan
72636;BME280;60679;48.888;15.544;2022-10-23T12:13:01;96343.06;;;27.93;nan
72636;BME280;60679;48.888;15.544;2022-10-23T12:15:31;96349.00;;;27.75;nan
72636;BME280;60679;48.888;15.544;2022-10-23T12:18:14;96338.69;;;27.84;nan
72636;BME280;60679;48.888;15.544;2022-10-23T12:20:50;96338.84;;;28.54;nan
72636;BME280;60679;48.888;15.544;2022-10-23T12:27:00;96336.31;;;27.57;nan
72636;BME280;60679;48.888;15.544;2022-10-23T12:40:13;96323.22;;;28.12;nan
72636;BME280;60679;48.888;15.544;2022-10-23T12:42:39;96317.75;;;27.48;nan
72636;BME280;60679;48.888;15.544;2022-10-23T12:45:25;96315.25;;;27.56;nan
72636;BME280;60679;48.888;15.544;2022-10-23T12:47:52;96308.56;;;28.61;nan
72636;BME280;60679;48.888;15.544;2022-10-23T12:50:26;96310.03;;;29.74;nan
72636;BME280;60679;48.888;15.544;2022-10-23T12:53:00;96295.38;;;30.99;nan
72636;BME280;60679;48.888;15.544;2022-10-23T12:55:29;96287.19;;;31.33;nan
72636;BME280;60679;48.888;15.544;2022-10-23T12:57:55;96295.78;;;31.84;nan
72636;BME280;60679;48.888;15.544;2022-10-23T13:00:23;96289.28;;;31.95;nan
72636;BME280;60679;48.888;15.544;2022-10-23T13:03:01;96291.72;;;32.44;nan
72636;BME280;60679;48.888;15.544;2022-10-23T13:05:29;96303.38;;;33.16;nan
72636;BME280;60679;48.888;15.544;2022-10-23T13:07:57;96289.06;;;35.62;nan
72636;BME280;60679;48.888;15.544;2022-10-23T13:10:24;96287.06;;;37.94;nan
72636;BME280;60679;48.888;15.544;2022-10-23T13:13:01;96288.59;;;39.40;nan
72636;BME280;60679;48.888;15.544;2022-10-23T13:15:37;96283.47;;;40.56;nan
72636;BME280;60679;48.888;15.544;2022-10-23T13:18:04;96290.25;;;41.77;nan
72636;BME280;60679;48.888;15.544;2022-10-23T13:20:36;96290.47;;;41.90;nan
72636;BME280;60679;48.888;15.544;2022-10-23T13:23:18;96290.63;;;41.45;nan
72636;BME280;60679;48.888;15.544;2022-10-23T13:25:54;96293.09;;;41.43;nan
72636;BME280;60679;48.888;15.544;2022-10-23T13:28:28;96289.31;;;41.16;nan
72636;BME280;60679;48.888;15.544;2022-10-23T13:33:37;96282.28;;;41.95;nan
72636;BME280;60679;48.888;15.544;2022-10-23T13:36:18;96275.31;;;40.10;nan
72636;BME280;60679;48.888;15.544;2022-10-23T13:38:46;96271.25;;;41.03;nan
72636;BME280;60679;48.888;15.544;2022-10-23T13:41:17;96277.81;;;41.34;nan
72636;BME280;60679;48.888;15.544;2022-10-23T13:43:45;96284.25;;;41.38;nan
72636;BME280;60679;48.888;15.544;2022-10-23T13:46:21;96281.56;;;40.83;nan
72636;BME280;60679;48.888;15.544;2022-10-23T13:48:47;96279.84;;;38.92;nan
72636;BME280;60679;48.888;15.544;2022-10-23T13:51:21;96275.16;;;35.76;nan
72636;BME280;60679;48.888;15.544;2022-10-23T13:53:48;96260.63;;;31.67;nan
72636;BME280;60679;48.888;15.544;2022-10-23T13:56:17;96268.38;;;28.59;nan
72636;BME280;60679;48.888;15.544;2022-10-23T13:58:43;96267.19;;;26.31;nan
72636;BME280;60679;48.888;15.544;2022-10-23T14:01:31;96273.75;;;24.59;nan
72636;BME280;60679;48.888;15.544;2022-10-23T14:03:57;96280.13;;;23.42;nan
72636;BME280;60679;48.888;15.544;2022-10-23T14:06:23;96268.91;;;22.74;nan
72636;BME280;60679;48.888;15.544;2022-10-23T14:08:49;96252.78;;;22.49;nan
72636;BME280;60679;48.888;15.544;2022-10-23T14:11:16;96254.97;;;22.47;nan
72636;BME280;60679;48.888;15.544;2022-10-23T14:13:42;96253.16;;;22.42;nan
72636;BME280;60679;48.888;15.544;2022-10-23T14:16:10;96256.44;;;22.26;nan
72636;BME280;60679;48.888;15.544;2022-10-23T14:18:36;96258.97;;;22.04;nan
72636;BME280;60679;48.888;15.544;2022-10-23T14:21:06;96256.53;;;21.55;nan
72636;BME280;60679;48.888;15.544;2022-10-23T14:23:32;96255.56;;;21.17;nan
72636;BME280;60679;48.888;15.544;2022-10-23T14:26:02;96252.91;;;20.78;nan
72636;BME280;60679;48.888;15.544;2022-10-23T14:28:28;96252.31;;;20.52;nan
72636;BME280;60679;48.888;15.544;2022-10-23T14:30:53;96246.69;;;20.34;nan
72636;BME280;60679;48.888;15.544;2022-10-23T14:33:19;96251.03;;;20.01;nan
72636;BME280;60679;48.888;15.544;2022-10-23T14:35:44;96256.47;;;19.52;nan
72636;BME280;60679;48.888;15.544;2022-10-23T14:38:09;96251.31;;;19.25;nan
72636;BME280;60679;48.888;15.544;2022-10-23T14:40:38;96256.91;;;18.85;nan
72636;BME280;60679;48.888;15.544;2022-10-23T14:43:04;96262.66;;;18.73;nan
72636;BME280;60679;48.888;15.544;2022-10-23T14:45:30;96252.81;;;18.67;nan
72636;BME280;60679;48.888;15.544;2022-10-23T14:47:55;96244.00;;;17.95;nan
72636;BME280;60679;48.888;15.544;2022-10-23T14:50:20;96248.41;;;17.33;nan
72636;BME280;60679;48.888;15.544;2022-10-23T14:52:46;96243.25;;;16.85;nan
72636;BME280;60679;48.888;15.544;2022-10-23T14:55:12;96235.75;;;16.65;nan
72636;BME280;60679;48.888;15.544;2022-10-23T14:57:37;96248.66;;;16.43;nan
72636;BME280;60679;48.888;15.544;2022-10-23T15:00:04;96248.44;;;16.18;nan
72636;BME280;60679;48.888;15.544;2022-10-23T15:02:30;96245.47;;;15.93;nan
72636;BME280;60679;48.888;15.544;2022-10-23T15:04:55;96261.47;;;15.57;nan
72636;BME280;60679;48.888;15.544;2022-10-23T15:07:20;96265.03;;;15.20;nan
72636;BME280;60679;48.888;15.544;2022-10-23T15:09:46;96263.19;;;15.03;nan
72636;BME280;60679;48.888;15.544;2022-10-23T15:12:11;96263.63;;;14.95;nan